Time;durP1;ratioP1;P1;durP2;ratioP2;P2;SDS_P1;SDS_P2;PMS_P1;PMS_P2;Temp;Humidity;BMP_temperature;BMP_pressure;BME280_temperature;BME280_humidity;BME280_pressure;Samples;Min_cycle;Max_cycle;Signal;HPM_P1;HPM_P2
2024/04/16 00:00:24;;;;;;;;;;;;;;;21.54;29.08;97109.66;5389151;26;702;-75
2024/04/16 00:02:50;;;;;;;;;;;;;;;21.65;28.98;97112.84;5420153;26;718;-76
2024/04/16 00:05:16;;;;;;;;;;;;;;;21.63;29.10;97109.72;5388902;26;801;-76
2024/04/16 00:07:41;;;;;;;;;;;;;;;21.45;29.24;97101.13;5388499;26;1242;-75
2024/04/16 00:10:07;;;;;;;;;;;;;;;21.78;28.82;97112.75;5359665;26;1170;-76
2024/04/16 00:12:32;;;;;;;;;;;;;;;21.71;28.67;97113.84;5388630;26;850;-75
2024/04/16 00:15:24;;;;;;;;;;;;;;;21.57;28.89;97105.94;5343376;26;1190;-76
2024/04/16 00:17:50;;;;;;;;;;;;;;;21.57;28.89;97115.19;5317218;26;1840;-75
2024/04/16 00:20:15;;;;;;;;;;;;;;;21.47;29.09;97109.97;5289356;26;1679;-75
2024/04/16 00:22:42;;;;;;;;;;;;;;;21.77;28.68;97108.34;5289032;26;1128;-75
2024/04/16 00:25:08;;;;;;;;;;;;;;;21.52;28.88;97112.19;5318008;26;983;-76
2024/04/16 00:27:34;;;;;;;;;;;;;;;21.72;28.60;97112.59;5250022;27;1173;-75
2024/04/16 00:29:59;;;;;;;;;;;;;;;21.42;29.12;97113.41;5249529;27;745;-76
2024/04/16 00:32:25;;;;;;;;;;;;;;;21.68;28.78;97117.59;5249646;27;731;-76
2024/04/16 00:34:51;;;;;;;;;;;;;;;21.66;28.88;97105.16;5249608;27;696;-75
2024/04/16 00:37:17;;;;;;;;;;;;;;;21.70;28.63;97115.06;5249427;27;754;-75
2024/04/16 00:39:42;;;;;;;;;;;;;;;21.71;28.59;97099.69;5249489;27;1826;-75
2024/04/16 00:42:08;;;;;;;;;;;;;;;21.82;28.58;97097.19;5277519;27;817;-75
2024/04/16 00:44:34;;;;;;;;;;;;;;;21.62;28.91;97093.19;5249183;27;1214;-75
2024/04/16 00:46:59;;;;;;;;;;;;;;;21.69;28.72;97087.25;5249937;27;747;-75
2024/04/16 00:49:25;;;;;;;;;;;;;;;21.63;28.93;97080.63;5298940;26;758;-75
2024/04/16 00:51:51;;;;;;;;;;;;;;;21.67;28.97;97082.06;5345995;26;753;-75
2024/04/16 00:54:17;;;;;;;;;;;;;;;21.53;29.11;97074.13;5346194;26;722;-76
2024/04/16 00:56:42;;;;;;;;;;;;;;;21.77;28.61;97061.00;5345761;26;813;-75
2024/04/16 00:59:08;;;;;;;;;;;;;;;21.51;29.05;97071.78;5316853;26;1829;-75
2024/04/16 01:01:35;;;;;;;;;;;;;;;21.71;28.75;97074.19;5317129;26;754;-76
2024/04/16 01:04:01;;;;;;;;;;;;;;;21.48;29.13;97066.25;5322539;26;1252;-75
2024/04/16 01:06:27;;;;;;;;;;;;;;;21.43;29.29;97061.22;5388158;26;841;-75
2024/04/16 01:08:52;;;;;;;;;;;;;;;21.70;28.80;97066.94;5361776;26;1058;-76
2024/04/16 01:11:24;;;;;;;;;;;;;;;21.46;29.13;97051.81;5422504;26;760;-76
2024/04/16 01:13:50;;;;;;;;;;;;;;;21.69;28.95;97056.88;5391440;26;1027;-76
2024/04/16 01:16:15;;;;;;;;;;;;;;;21.37;29.15;97054.59;5362187;26;902;-75
2024/04/16 01:18:41;;;;;;;;;;;;;;;21.79;28.59;97061.31;5390857;26;1829;-75
2024/04/16 01:21:06;;;;;;;;;;;;;;;21.69;28.53;97059.72;5391175;26;710;-76
2024/04/16 01:23:32;;;;;;;;;;;;;;;21.68;28.63;97052.47;5390731;26;1184;-75
2024/04/16 01:25:58;;;;;;;;;;;;;;;21.58;28.74;97042.38;5356233;26;1087;-76
2024/04/16 01:28:23;;;;;;;;;;;;;;;21.51;29.16;97048.34;5355896;26;1336;-76
2024/04/16 01:30:49;;;;;;;;;;;;;;;21.59;28.85;97046.78;5355713;26;1253;-75
2024/04/16 01:33:14;;;;;;;;;;;;;;;21.81;28.49;97049.50;5387545;26;876;-75
2024/04/16 01:35:40;;;;;;;;;;;;;;;21.75;28.44;97040.84;5383539;26;1405;-76
2024/04/16 01:38:06;;;;;;;;;;;;;;;21.79;28.40;97047.16;5354345;26;1826;-75
2024/04/16 01:40:31;;;;;;;;;;;;;;;21.59;28.52;97043.97;5325322;26;1071;-75
2024/04/16 01:42:57;;;;;;;;;;;;;;;21.69;28.50;97042.72;5325298;26;1114;-75
2024/04/16 01:45:22;;;;;;;;;;;;;;;21.45;28.87;97036.03;5325499;26;777;-75
2024/04/16 01:47:48;;;;;;;;;;;;;;;21.68;28.61;97034.69;5313834;27;748;-75
2024/04/16 01:50:13;;;;;;;;;;;;;;;21.52;28.90;97032.94;5285397;27;738;-75
2024/04/16 01:52:39;;;;;;;;;;;;;;;21.68;28.47;97027.00;5285107;27;1159;-77
2024/04/16 01:55:05;;;;;;;;;;;;;;;21.55;28.67;97023.50;5313649;27;742;-75
2024/04/16 01:57:30;;;;;;;;;;;;;;;21.51;28.73;97020.06;5285381;27;1822;-76
2024/04/16 01:59:56;;;;;;;;;;;;;;;21.47;28.95;97027.91;5257237;27;1181;-76
2024/04/16 02:02:22;;;;;;;;;;;;;;;21.73;28.25;97020.72;5257364;27;945;-75
2024/04/16 02:04:47;;;;;;;;;;;;;;;21.74;28.41;97019.44;5257012;27;1084;-75
2024/04/16 02:07:13;;;;;;;;;;;;;;;21.65;28.36;97013.78;5285233;27;765;-76
2024/04/16 02:09:38;;;;;;;;;;;;;;;21.77;28.31;97010.03;5257258;27;699;-76
2024/04/16 02:12:04;;;;;;;;;;;;;;;21.47;28.77;97019.41;5285389;27;814;-75
2024/04/16 02:14:30;;;;;;;;;;;;;;;21.62;28.50;97026.03;5313652;27;841;-75
2024/04/16 02:16:56;;;;;;;;;;;;;;;21.42;28.84;97011.53;5284934;27;1257;-75
2024/04/16 02:19:22;;;;;;;;;;;;;;;21.87;28.10;97024.22;5326819;26;1826;-75
2024/04/16 02:21:48;;;;;;;;;;;;;;;21.71;28.29;97028.91;5355183;26;1121;-75
2024/04/16 02:24:14;;;;;;;;;;;;;;;21.67;28.40;97031.09;5393367;26;1333;-75
2024/04/16 02:26:40;;;;;;;;;;;;;;;21.61;28.46;97027.31;5361656;26;1107;-75
2024/04/16 02:29:05;;;;;;;;;;;;;;;21.57;28.54;97029.50;5390264;26;706;-75
2024/04/16 02:31:31;;;;;;;;;;;;;;;21.52;28.58;97024.44;5361038;26;766;-76
2024/04/16 02:33:56;;;;;;;;;;;;;;;21.71;28.25;97028.91;5390114;26;749;-75
2024/04/16 02:36:22;;;;;;;;;;;;;;;21.90;28.02;97028.91;5331876;26;1141;-76
2024/04/16 02:38:51;;;;;;;;;;;;;;;21.53;28.63;97031.69;5390079;26;1829;-75
2024/04/16 02:41:16;;;;;;;;;;;;;;;21.52;28.62;97035.78;5421410;26;955;-75
2024/04/16 02:43:42;;;;;;;;;;;;;;;21.53;28.36;97040.16;5389752;26;1165;-75
2024/04/16 02:46:07;;;;;;;;;;;;;;;21.63;28.43;97044.59;5360991;26;1174;-75
2024/04/16 02:48:33;;;;;;;;;;;;;;;21.50;28.57;97041.09;5360842;26;765;-75
2024/04/16 02:51:00;;;;;;;;;;;;;;;21.50;28.49;97041.09;5389917;26;836;-75
2024/04/16 02:53:26;;;;;;;;;;;;;;;21.90;28.12;97040.25;5284728;27;759;-76
2024/04/16 02:55:52;;;;;;;;;;;;;;;21.66;28.27;97043.69;5284589;27;924;-73
2024/04/16 02:58:17;;;;;;;;;;;;;;;21.41;28.89;97055.25;5284219;27;1822;-73
2024/04/16 03:00:43;;;;;;;;;;;;;;;21.49;28.65;97056.50;5284819;27;810;-73
2024/04/16 03:03:10;;;;;;;;;;;;;;;21.55;28.61;97055.44;5284254;27;1425;-73
2024/04/16 03:05:35;;;;;;;;;;;;;;;21.55;28.59;97068.78;5284625;27;727;-73
2024/04/16 03:08:01;;;;;;;;;;;;;;;21.56;28.58;97059.06;5284181;27;748;-73
2024/04/16 03:10:26;;;;;;;;;;;;;;;21.62;28.50;97064.91;5284511;27;1246;-73
2024/04/16 03:12:52;;;;;;;;;;;;;;;21.72;28.56;97058.78;5284304;27;832;-72
2024/04/16 03:15:18;;;;;;;;;;;;;;;21.74;28.22;97059.09;5250210;27;811;-74
2024/04/16 03:17:43;;;;;;;;;;;;;;;21.75;28.17;97060.66;5222718;27;1875;-72
2024/04/16 03:20:09;;;;;;;;;;;;;;;21.51;28.70;97056.84;5250356;27;857;-74
2024/04/16 03:22:35;;;;;;;;;;;;;;;21.45;28.65;97056.66;5222904;27;763;-72
2024/04/16 03:25:00;;;;;;;;;;;;;;;21.47;28.75;97053.38;5271577;26;1175;-73
2024/04/16 03:27:26;;;;;;;;;;;;;;;21.47;28.86;97064.69;5261584;26;1146;-73
2024/04/16 03:29:51;;;;;;;;;;;;;;;21.30;28.96;97059.28;5317720;26;764;-74
2024/04/16 03:32:17;;;;;;;;;;;;;;;21.49;28.87;97067.81;5288916;26;883;-73
2024/04/16 03:34:43;;;;;;;;;;;;;;;21.59;28.52;97066.59;5289844;26;696;-73
2024/04/16 03:37:08;;;;;;;;;;;;;;;21.98;28.07;97064.19;5318168;26;717;-72
2024/04/16 03:39:34;;;;;;;;;;;;;;;21.81;28.38;97067.31;5289819;26;1831;-73
2024/04/16 03:42:00;;;;;;;;;;;;;;;21.64;28.37;97071.66;5318374;26;794;-74
2024/04/16 03:44:25;;;;;;;;;;;;;;;21.76;28.37;97069.94;5289528;26;1216;-73
2024/04/16 03:46:51;;;;;;;;;;;;;;;21.84;28.14;97065.56;5399345;26;707;-72
2024/04/16 03:49:16;;;;;;;;;;;;;;;21.69;28.47;97070.25;5388911;26;1268;-73
2024/04/16 03:51:42;;;;;;;;;;;;;;;21.69;28.35;97065.38;5317726;26;1203;-73
2024/04/16 03:54:07;;;;;;;;;;;;;;;21.63;28.30;97066.47;5317732;26;773;-72
2024/04/16 03:56:33;;;;;;;;;;;;;;;21.45;28.80;97062.34;5346659;26;926;-73
2024/04/16 03:59:15;;;;;;;;;;;;;;;21.53;28.63;97057.94;5317953;26;1829;-72
2024/04/16 04:01:44;;;;;;;;;;;;;;;21.65;28.72;97063.94;5346670;26;890;-73
2024/04/16 04:04:11;;;;;;;;;;;;;;;21.64;28.58;97068.81;5289161;26;1079;-72
2024/04/16 04:06:37;;;;;;;;;;;;;;;21.50;28.78;97067.38;5317662;26;1171;-74
2024/04/16 04:09:02;;;;;;;;;;;;;;;21.70;28.29;97061.28;5346786;26;1014;-72
2024/04/16 04:11:28;;;;;;;;;;;;;;;21.78;28.09;97062.56;5317816;26;1348;-74
2024/04/16 04:13:53;;;;;;;;;;;;;;;21.57;28.29;97069.13;5317563;26;1161;-74
2024/04/16 04:16:19;;;;;;;;;;;;;;;21.36;28.94;97075.66;5345934;26;1772;-74
2024/04/16 04:18:45;;;;;;;;;;;;;;;21.67;28.34;97072.78;5317455;26;1834;-74
2024/04/16 04:21:11;;;;;;;;;;;;;;;21.55;28.38;97071.63;5346906;26;1497;-73
2024/04/16 04:23:36;;;;;;;;;;;;;;;21.57;28.66;97075.56;5323270;26;1165;-74
2024/04/16 04:26:02;;;;;;;;;;;;;;;21.61;28.57;97069.78;5381726;26;1034;-74
2024/04/16 04:28:28;;;;;;;;;;;;;;;21.51;28.66;97066.13;5346544;26;1130;-74
2024/04/16 04:30:53;;;;;;;;;;;;;;;21.87;28.31;97069.53;5347311;26;946;-74
2024/04/16 04:33:19;;;;;;;;;;;;;;;21.61;28.73;97064.09;5311455;27;1209;-74
2024/04/16 04:35:45;;;;;;;;;;;;;;;21.65;28.80;97070.38;5283757;27;1739;-74
2024/04/16 04:38:11;;;;;;;;;;;;;;;21.59;29.11;97078.72;5283297;27;1834;-74
2024/04/16 04:40:36;;;;;;;;;;;;;;;21.78;28.86;97087.25;5283669;27;1020;-73
2024/04/16 04:43:02;;;;;;;;;;;;;;;21.70;28.77;97095.25;5243250;27;986;-74
2024/04/16 04:45:28;;;;;;;;;;;;;;;21.74;28.86;97095.91;5243620;27;1363;-75
2024/04/16 04:47:53;;;;;;;;;;;;;;;21.76;28.55;97101.91;5216078;27;1187;-74
2024/04/16 04:50:19;;;;;;;;;;;;;;;21.72;28.73;97109.75;5243591;27;872;-74
2024/04/16 04:52:45;;;;;;;;;;;;;;;21.88;28.53;97105.06;5215766;27;1065;-75
2024/04/16 04:55:10;;;;;;;;;;;;;;;21.79;28.58;97106.59;5243752;27;894;-74
2024/04/16 04:57:36;;;;;;;;;;;;;;;21.75;28.69;97105.97;5215773;27;1864;-74
2024/04/16 05:00:03;;;;;;;;;;;;;;;21.75;28.67;97114.47;5248970;27;1034;-74
2024/04/16 05:02:29;;;;;;;;;;;;;;;21.74;28.69;97098.72;5249623;27;946;-74
2024/04/16 05:04:54;;;;;;;;;;;;;;;21.52;29.03;97103.69;5221108;27;1161;-74
2024/04/16 05:07:20;;;;;;;;;;;;;;;21.60;28.98;97104.97;5243204;27;880;-74
2024/04/16 05:09:48;;;;;;;;;;;;;;;21.68;28.92;97108.31;5217842;27;912;-73
2024/04/16 05:12:14;;;;;;;;;;;;;;;21.77;28.80;97111.97;5277126;27;1198;-75
2024/04/16 05:14:39;;;;;;;;;;;;;;;21.86;28.58;97114.00;5327680;26;958;-74
2024/04/16 05:17:05;;;;;;;;;;;;;;;21.94;28.45;97117.34;5374579;26;1130;-74
2024/04/16 05:19:30;;;;;;;;;;;;;;;21.82;28.64;97119.84;5316842;26;1842;-74
2024/04/16 05:21:56;;;;;;;;;;;;;;;21.88;28.61;97111.53;5310867;27;1217;-73
2024/04/16 05:24:21;;;;;;;;;;;;;;;21.56;29.07;97110.00;5311002;27;1076;-74
2024/04/16 05:26:47;;;;;;;;;;;;;;;21.65;28.93;97110.03;5282352;27;1127;-74
2024/04/16 05:29:13;;;;;;;;;;;;;;;21.69;28.94;97105.00;5310907;27;937;-75
2024/04/16 05:31:38;;;;;;;;;;;;;;;21.65;29.12;97118.50;5254065;27;1245;-73
2024/04/16 05:34:04;;;;;;;;;;;;;;;21.73;28.90;97108.50;5243087;27;913;-74
2024/04/16 05:36:29;;;;;;;;;;;;;;;21.68;28.88;97102.66;5242989;27;1054;-73
2024/04/16 05:38:55;;;;;;;;;;;;;;;21.72;28.93;97108.97;5185543;27;1834;-74
2024/04/16 05:41:20;;;;;;;;;;;;;;;21.75;28.88;97108.78;5176846;27;1090;-74
2024/04/16 05:43:47;;;;;;;;;;;;;;;21.75;29.20;97117.28;5176718;27;1052;-74
2024/04/16 05:46:13;;;;;;;;;;;;;;;21.65;29.12;97124.19;5176963;27;926;-74
2024/04/16 05:48:39;;;;;;;;;;;;;;;21.71;29.20;97116.66;5200603;27;924;-74
2024/04/16 05:51:05;;;;;;;;;;;;;;;21.62;29.23;97110.97;5209576;27;916;-74
2024/04/16 05:53:30;;;;;;;;;;;;;;;21.77;29.00;97111.97;5282446;27;928;-74
2024/04/16 05:55:56;;;;;;;;;;;;;;;21.87;28.92;97123.31;5257239;27;936;-74
2024/04/16 05:58:24;;;;;;;;;;;;;;;21.79;29.06;97120.78;5313565;27;1853;-74
2024/04/16 06:00:49;;;;;;;;;;;;;;;21.68;29.23;97120.44;5271703;26;1327;-75
2024/04/16 06:03:15;;;;;;;;;;;;;;;21.81;29.20;97117.47;5327718;26;1403;-74
2024/04/16 06:05:40;;;;;;;;;;;;;;;21.78;29.21;97124.06;5352397;26;1341;-75
2024/04/16 06:08:06;;;;;;;;;;;;;;;21.87;28.98;97126.16;5309569;26;1367;-76
2024/04/16 06:10:32;;;;;;;;;;;;;;;21.74;29.16;97124.22;5337942;26;1413;-75
2024/04/16 06:12:57;;;;;;;;;;;;;;;21.71;29.28;97135.69;5312875;27;1314;-76
2024/04/16 06:15:23;;;;;;;;;;;;;;;21.74;29.43;97129.88;5316580;26;1007;-76
2024/04/16 06:17:48;;;;;;;;;;;;;;;22.00;28.86;97136.09;5319315;26;1822;-75
2024/04/16 06:20:14;;;;;;;;;;;;;;;21.71;29.45;97130.81;5318895;26;1221;-75
2024/04/16 06:22:40;;;;;;;;;;;;;;;21.87;29.10;97132.59;5319123;26;1339;-76
2024/04/16 06:25:06;;;;;;;;;;;;;;;21.96;28.90;97126.94;5319207;26;1253;-75
2024/04/16 06:27:32;;;;;;;;;;;;;;;22.00;28.87;97129.63;5313334;27;1153;-75
2024/04/16 06:29:57;;;;;;;;;;;;;;;22.11;28.76;97130.00;5284767;27;1102;-76
2024/04/16 06:32:23;;;;;;;;;;;;;;;21.89;29.13;97123.63;5285103;27;1118;-75
2024/04/16 06:34:48;;;;;;;;;;;;;;;21.95;29.06;97133.09;5313350;27;1014;-75
2024/04/16 06:37:14;;;;;;;;;;;;;;;21.88;29.07;97133.38;5313686;27;931;-75
2024/04/16 06:39:40;;;;;;;;;;;;;;;21.91;28.94;97126.78;5279469;27;1822;-75
2024/04/16 06:42:05;;;;;;;;;;;;;;;21.72;29.47;97120.28;5250980;27;1031;-76
2024/04/16 06:44:31;;;;;;;;;;;;;;;21.97;29.11;97122.88;5250919;27;934;-76
2024/04/16 06:46:56;;;;;;;;;;;;;;;21.97;29.08;97120.03;5250953;27;1257;-75
2024/04/16 06:49:22;;;;;;;;;;;;;;;21.81;29.43;97115.44;5278921;27;915;-75
2024/04/16 06:51:47;;;;;;;;;;;;;;;21.67;29.71;97113.19;5279359;27;929;-75
2024/04/16 06:54:13;;;;;;;;;;;;;;;21.59;29.69;97111.91;5279079;27;983;-75
2024/04/16 06:56:40;;;;;;;;;;;;;;;21.96;29.22;97106.31;5278930;27;1004;-76
2024/04/16 06:59:05;;;;;;;;;;;;;;;21.32;30.27;97104.88;5290275;26;1856;-76
2024/04/16 07:01:31;;;;;;;;;;;;;;;21.65;29.81;97106.41;5347518;26;918;-75
2024/04/16 07:03:59;;;;;;;;;;;;;;;22.09;29.26;97104.16;5318528;26;1214;-75
2024/04/16 07:06:25;;;;;;;;;;;;;;;22.25;28.88;97101.06;5337264;26;1804;-75
2024/04/16 07:08:51;;;;;;;;;;;;;;;22.07;29.00;97103.81;5332487;26;1601;-75
2024/04/16 07:11:16;;;;;;;;;;;;;;;21.62;29.88;97098.88;5322961;26;1654;-75
2024/04/16 07:13:44;;;;;;;;;;;;;;;21.99;29.36;97089.19;5344476;26;1594;-76
2024/04/16 07:16:09;;;;;;;;;;;;;;;21.95;29.55;97090.59;5372604;26;1753;-76
2024/04/16 07:18:35;;;;;;;;;;;;;;;21.96;29.51;97101.44;5381800;26;1975;-76
2024/04/16 07:21:00;;;;;;;;;;;;;;;21.95;29.41;97082.09;5382324;26;965;-75
2024/04/16 07:23:26;;;;;;;;;;;;;;;22.11;29.40;97096.00;5382292;26;953;-75
2024/04/16 07:25:51;;;;;;;;;;;;;;;22.09;29.36;97102.13;5382243;26;1093;-75
2024/04/16 07:28:17;;;;;;;;;;;;;;;22.05;29.46;97109.19;5382211;26;930;-75
2024/04/16 07:30:45;;;;;;;;;;;;;;;21.87;29.71;97098.63;5382104;26;1025;-74
2024/04/16 07:33:11;;;;;;;;;;;;;;;22.05;29.39;97103.53;5382528;26;1048;-75
2024/04/16 07:35:36;;;;;;;;;;;;;;;22.07;29.42;97095.31;5382083;26;1013;-75
2024/04/16 07:38:02;;;;;;;;;;;;;;;22.26;29.16;97096.97;5352364;26;1829;-75
2024/04/16 07:40:27;;;;;;;;;;;;;;;22.25;29.22;97086.88;5381979;26;974;-75
2024/04/16 07:42:53;;;;;;;;;;;;;;;22.10;29.47;97100.06;5352806;26;1156;-75
2024/04/16 07:45:18;;;;;;;;;;;;;;;22.04;29.68;97102.72;5381927;26;995;-75
2024/04/16 07:47:44;;;;;;;;;;;;;;;22.14;29.51;97099.94;5381948;26;951;-74
2024/04/16 07:50:10;;;;;;;;;;;;;;;21.98;29.77;97101.00;5346871;26;1037;-74
2024/04/16 07:52:35;;;;;;;;;;;;;;;22.08;29.69;97102.59;5317885;26;968;-74
2024/04/16 07:55:01;;;;;;;;;;;;;;;22.23;29.46;97097.91;5344309;26;923;-74
2024/04/16 07:57:26;;;;;;;;;;;;;;;22.11;29.62;97090.34;5312749;27;997;-74
2024/04/16 07:59:52;;;;;;;;;;;;;;;22.02;29.73;97084.63;5283589;27;1850;-74
2024/04/16 08:02:19;;;;;;;;;;;;;;;22.05;29.82;97092.97;5284019;27;1016;-74
2024/04/16 08:04:44;;;;;;;;;;;;;;;22.01;29.74;97086.66;5312138;27;964;-75
2024/04/16 08:07:10;;;;;;;;;;;;;;;21.96;29.87;97083.66;5283841;27;982;-74
2024/04/16 08:09:37;;;;;;;;;;;;;;;21.98;29.71;97087.63;5308537;26;960;-75
2024/04/16 08:12:02;;;;;;;;;;;;;;;22.00;29.56;97078.66;5346281;26;935;-74
2024/04/16 08:14:28;;;;;;;;;;;;;;;21.90;29.75;97079.88;5249521;27;1147;-75
2024/04/16 08:16:53;;;;;;;;;;;;;;;21.89;29.83;97083.97;5276571;27;1126;-75
2024/04/16 08:19:19;;;;;;;;;;;;;;;21.98;29.64;97086.84;5249540;27;1867;-75
2024/04/16 08:21:45;;;;;;;;;;;;;;;21.77;29.79;97083.66;5249279;27;1225;-74
2024/04/16 08:24:10;;;;;;;;;;;;;;;21.82;29.78;97080.19;5249255;27;1128;-75
2024/04/16 08:26:36;;;;;;;;;;;;;;;22.01;29.56;97077.38;5252007;27;988;-74
2024/04/16 08:29:01;;;;;;;;;;;;;;;21.84;29.74;97083.34;5283437;27;908;-75
2024/04/16 08:31:27;;;;;;;;;;;;;;;21.98;29.50;97084.00;5255227;27;966;-75
2024/04/16 08:33:52;;;;;;;;;;;;;;;21.90;29.74;97074.22;5283307;27;1211;-75
2024/04/16 08:36:18;;;;;;;;;;;;;;;22.01;29.42;97071.72;5283332;27;1130;-75
2024/04/16 08:38:43;;;;;;;;;;;;;;;21.75;29.76;97074.81;5283351;27;1822;-75
2024/04/16 08:41:09;;;;;;;;;;;;;;;22.25;28.97;97072.72;5283168;27;1167;-74
2024/04/16 08:43:35;;;;;;;;;;;;;;;22.00;29.20;97081.47;5249451;27;1119;-74
2024/04/16 08:46:02;;;;;;;;;;;;;;;21.93;29.12;97085.41;5297710;26;991;-75
2024/04/16 08:48:30;;;;;;;;;;;;;;;21.69;29.39;97092.91;5288763;26;1244;-74
2024/04/16 08:50:58;;;;;;;;;;;;;;;21.82;29.42;97096.41;5317834;26;1296;-74
2024/04/16 08:53:24;;;;;;;;;;;;;;;21.81;29.43;97084.28;5288652;26;1644;-74
2024/04/16 08:55:50;;;;;;;;;;;;;;;21.72;29.55;97087.09;5288675;26;952;-74
2024/04/16 08:58:16;;;;;;;;;;;;;;;21.89;29.30;97081.94;5288906;26;1848;-76
2024/04/16 09:00:42;;;;;;;;;;;;;;;21.69;29.52;97082.34;5317236;26;957;-74
2024/04/16 09:03:07;;;;;;;;;;;;;;;21.79;29.47;97094.50;5346101;26;887;-74
2024/04/16 09:05:33;;;;;;;;;;;;;;;21.95;28.81;97093.44;5317221;26;958;-73
2024/04/16 09:07:58;;;;;;;;;;;;;;;21.74;29.49;97101.56;5317051;26;1087;-73
2024/04/16 09:10:24;;;;;;;;;;;;;;;22.01;28.82;97100.03;5345638;26;944;-74
2024/04/16 09:12:50;;;;;;;;;;;;;;;21.77;29.36;97099.84;5316875;26;1006;-74
2024/04/16 09:15:16;;;;;;;;;;;;;;;21.79;29.22;97100.16;5317334;26;948;-74
2024/04/16 09:17:45;;;;;;;;;;;;;;;21.82;29.13;97088.69;5316821;26;1994;-73
2024/04/16 09:20:18;;;;;;;;;;;;;;;21.58;29.61;97087.69;5321684;26;944;-74
2024/04/16 09:22:43;;;;;;;;;;;;;;;21.83;29.19;97081.78;5351459;26;948;-74
2024/04/16 09:25:09;;;;;;;;;;;;;;;21.89;29.01;97078.31;5350870;26;1186;-75
2024/04/16 09:27:35;;;;;;;;;;;;;;;21.98;28.72;97076.28;5351469;26;978;-75
2024/04/16 09:30:12;;;;;;;;;;;;;;;21.85;28.90;97067.91;5354472;26;1086;-75
2024/04/16 09:32:38;;;;;;;;;;;;;;;21.95;28.82;97076.44;5279835;27;906;-75
2024/04/16 09:35:03;;;;;;;;;;;;;;;21.78;29.12;97073.09;5279907;27;1084;-76
2024/04/16 09:37:29;;;;;;;;;;;;;;;21.63;29.33;97063.63;5280298;27;993;-75
2024/04/16 09:39:55;;;;;;;;;;;;;;;21.91;28.94;97058.81;5251871;27;1830;-76
2024/04/16 09:42:21;;;;;;;;;;;;;;;21.66;29.26;97063.50;5279956;27;952;-76
2024/04/16 09:44:47;;;;;;;;;;;;;;;21.89;28.87;97055.66;5251934;27;1101;-75
2024/04/16 09:47:13;;;;;;;;;;;;;;;21.76;28.98;97059.44;5259190;27;1191;-75
2024/04/16 09:49:38;;;;;;;;;;;;;;;21.67;29.17;97050.91;5285566;27;1081;-75
2024/04/16 09:52:04;;;;;;;;;;;;;;;21.74;29.17;97042.09;5313794;27;916;-75
2024/04/16 09:54:29;;;;;;;;;;;;;;;21.78;28.95;97042.75;5285607;27;924;-75
2024/04/16 09:56:55;;;;;;;;;;;;;;;21.68;29.26;97052.47;5257519;27;1007;-76
2024/04/16 09:59:21;;;;;;;;;;;;;;;21.56;29.35;97053.41;5292471;26;1823;-75
2024/04/16 10:01:46;;;;;;;;;;;;;;;21.81;29.04;97055.97;5290815;26;1318;-75
2024/04/16 10:04:12;;;;;;;;;;;;;;;21.87;28.67;97058.97;5365301;26;938;-76
2024/04/16 10:06:38;;;;;;;;;;;;;;;21.73;29.04;97060.34;5354041;26;1462;-76
2024/04/16 10:09:03;;;;;;;;;;;;;;;21.67;29.08;97055.78;5354188;26;1065;-75
2024/04/16 10:11:32;;;;;;;;;;;;;;;21.72;28.87;97047.47;5324886;26;913;-75
2024/04/16 10:20:31;;;;;;;;;;;;;;;21.88;28.62;97057.72;5347675;26;2449;-75
2024/04/16 10:22:58;;;;;;;;;;;;;;;21.77;28.92;97061.00;5319273;26;1170;-75
2024/04/16 10:25:54;;;;;;;;;;;;;;;21.83;28.91;97044.97;5347615;26;1151;-76
2024/04/16 10:28:23;;;;;;;;;;;;;;;21.35;29.45;97011.81;5318967;26;1353;-76
2024/04/16 10:31:10;;;;;;;;;;;;;;;21.79;29.01;97035.81;5319166;26;1236;-75
2024/04/16 10:34:10;;;;;;;;;;;;;;;21.90;28.82;97040.25;5284893;27;1238;-75
2024/04/16 10:36:35;;;;;;;;;;;;;;;21.85;28.90;97028.28;5256665;27;1066;-75
2024/04/16 10:42:26;;;;;;;;;;;;;;;21.59;29.35;97032.63;5313376;27;1088;-75
2024/04/16 10:45:28;;;;;;;;;;;;;;;21.65;29.36;97030.75;5285140;27;956;-75
2024/04/16 10:48:25;;;;;;;;;;;;;;;21.73;29.14;97031.25;5313732;27;996;-75
2024/04/16 10:50:51;;;;;;;;;;;;;;;21.63;29.32;97021.94;5284848;27;945;-75
2024/04/16 10:53:41;;;;;;;;;;;;;;;21.67;29.31;97014.09;5355861;26;1385;-76
2024/04/16 10:56:38;;;;;;;;;;;;;;;21.45;29.64;97016.25;5313237;27;1239;-76
2024/04/16 11:03:28;;;;;;;;;;;;;;;21.68;29.33;97012.84;5313170;27;940;-75
2024/04/16 11:06:28;;;;;;;;;;;;;;;21.59;29.45;97010.00;5352240;26;1217;-76
2024/04/16 11:09:28;;;;;;;;;;;;;;;21.81;29.07;97016.34;5353514;26;1065;-75
2024/04/16 11:12:11;;;;;;;;;;;;;;;21.71;29.47;97000.59;5382449;26;1209;-75
2024/04/16 11:14:43;;;;;;;;;;;;;;;21.53;29.68;97004.16;5352784;26;1053;-75
2024/04/16 11:17:39;;;;;;;;;;;;;;;21.66;29.56;96994.72;5353139;26;1010;-75
2024/04/16 11:20:29;;;;;;;;;;;;;;;21.77;29.34;96978.09;5382280;26;1151;-74
2024/04/16 11:22:55;;;;;;;;;;;;;;;21.91;29.08;96982.34;5323896;26;1143;-75
2024/04/16 11:25:58;;;;;;;;;;;;;;;22.03;28.82;96975.75;5352818;26;995;-75
2024/04/16 11:31:59;;;;;;;;;;;;;;;21.66;29.39;96981.41;5382188;26;1523;-75
2024/04/16 11:34:55;;;;;;;;;;;;;;;21.81;29.18;96971.03;5352804;26;1227;-76
2024/04/16 11:37:56;;;;;;;;;;;;;;;21.67;29.71;96971.63;5384514;26;1974;-76
2024/04/16 11:40:58;;;;;;;;;;;;;;;21.62;29.70;96969.44;5354181;26;1329;-76
2024/04/16 11:44:01;;;;;;;;;;;;;;;21.71;29.54;96958.13;5383130;26;1221;-76
2024/04/16 11:47:01;;;;;;;;;;;;;;;21.81;29.38;96956.88;5383053;26;1016;-75
2024/04/16 11:49:27;;;;;;;;;;;;;;;21.93;29.05;96949.47;5383355;26;927;-76
2024/04/16 11:52:07;;;;;;;;;;;;;;;21.93;29.14;96945.84;5352262;26;1137;-75
2024/04/16 11:55:10;;;;;;;;;;;;;;;21.69;29.56;96951.34;5355686;26;955;-75
2024/04/16 11:58:10;;;;;;;;;;;;;;;21.66;29.57;96947.41;5383065;26;872;-75
2024/04/16 12:01:16;;;;;;;;;;;;;;;21.71;29.51;96943.16;5384944;26;923;-74
2024/04/16 12:04:16;;;;;;;;;;;;;;;21.54;29.83;96943.47;5382733;26;1157;-75
2024/04/16 12:07:10;;;;;;;;;;;;;;;21.81;29.58;96948.38;5385302;26;848;-75
2024/04/16 12:10:10;;;;;;;;;;;;;;;21.92;29.41;96941.44;5384462;26;919;-75
2024/04/16 12:13:10;;;;;;;;;;;;;;;21.73;29.56;96935.00;5382786;26;1249;-75
2024/04/16 12:15:42;;;;;;;;;;;;;;;21.75;29.71;96938.91;5382902;26;985;-75
2024/04/16 12:18:20;;;;;;;;;;;;;;;21.73;29.70;96935.78;5381200;26;1825;-75
2024/04/16 12:20:46;;;;;;;;;;;;;;;21.77;29.60;96941.28;5381450;26;1177;-75
2024/04/16 12:23:44;;;;;;;;;;;;;;;21.91;29.51;96939.84;5374398;26;1597;-75
2024/04/16 12:26:48;;;;;;;;;;;;;;;21.62;29.55;96932.63;5346047;26;1036;-75
2024/04/16 12:29:47;;;;;;;;;;;;;;;21.73;29.54;96935.00;5346313;26;997;-75
2024/04/16 12:32:31;;;;;;;;;;;;;;;21.88;29.31;96924.59;5345943;26;959;-75
2024/04/16 12:35:44;;;;;;;;;;;;;;;21.76;29.56;96929.19;5346288;26;938;-75
2024/04/16 12:38:45;;;;;;;;;;;;;;;21.71;29.54;96918.47;5317042;26;1822;-75
2024/04/16 12:41:45;;;;;;;;;;;;;;;21.68;29.58;96910.91;5318238;26;1053;-75
2024/04/16 12:44:47;;;;;;;;;;;;;;;21.70;29.57;96913.28;5289134;26;1102;-75
2024/04/16 12:50:35;;;;;;;;;;;;;;;21.88;29.27;96912.50;5380654;26;1040;-75
2024/04/16 12:56:40;;;;;;;;;;;;;;;21.64;29.78;96915.94;5382692;26;1121;-75
2024/04/16 12:59:06;;;;;;;;;;;;;;;21.95;29.22;96918.59;5417797;26;1826;-75
2024/04/16 13:01:31;;;;;;;;;;;;;;;21.89;29.28;96909.19;5417283;26;1013;-75
2024/04/16 13:03:57;;;;;;;;;;;;;;;21.78;29.49;96915.31;5421480;26;907;-75
2024/04/16 13:06:23;;;;;;;;;;;;;;;21.75;29.57;96927.59;5425327;26;913;-76
2024/04/16 13:08:48;;;;;;;;;;;;;;;21.69;29.64;96932.31;5395528;26;939;-75
2024/04/16 13:11:14;;;;;;;;;;;;;;;22.00;29.07;96928.53;5393717;26;998;-75
2024/04/16 13:13:39;;;;;;;;;;;;;;;21.78;29.47;96915.31;5335339;26;1331;-76
2024/04/16 13:16:08;;;;;;;;;;;;;;;21.66;29.69;96912.63;5365107;26;1269;-75
2024/04/16 13:18:34;;;;;;;;;;;;;;;22.02;29.29;96917.50;5364433;26;1818;-75
2024/04/16 13:21:00;;;;;;;;;;;;;;;21.75;29.35;96910.59;5364856;26;963;-75
2024/04/16 13:23:25;;;;;;;;;;;;;;;21.72;29.60;96911.56;5393837;26;911;-75
2024/04/16 13:25:51;;;;;;;;;;;;;;;21.89;29.37;96911.22;5393251;26;1031;-75
2024/04/16 13:28:17;;;;;;;;;;;;;;;21.94;29.21;96910.59;5388108;26;1273;-75
2024/04/16 13:30:42;;;;;;;;;;;;;;;21.90;29.08;96912.78;5423802;26;983;-75
2024/04/16 13:33:08;;;;;;;;;;;;;;;21.76;29.49;96912.19;5364420;26;1220;-75
2024/04/16 13:35:34;;;;;;;;;;;;;;;21.92;29.21;96902.59;5352359;26;1221;-75